Time;durP1;ratioP1;P1;durP2;ratioP2;P2;SDS_P1;SDS_P2;PMS_P1;PMS_P2;Temp;Humidity;BMP_temperature;BMP_pressure;BME280_temperature;BME280_humidity;BME280_pressure;Samples;Min_cycle;Max_cycle;Signal;HPM_P1;HPM_P2
2021/06/18 00:00:17;;;;;;;2.88;2.67;;;25.60;59.60;;;;;;5091827;28;20560;-60
2021/06/18 00:02:43;;;;;;;3.30;2.97;;;25.60;59.60;;;;;;5091720;28;20536;-60
2021/06/18 00:05:10;;;;;;;3.10;2.90;;;25.70;59.60;;;;;;5092345;28;20196;-60
2021/06/18 00:07:35;;;;;;;3.22;2.92;;;25.60;59.60;;;;;;5091311;28;20213;-60
2021/06/18 00:10:01;;;;;;;3.20;2.90;;;25.60;59.60;;;;;;5091876;28;20172;-60
2021/06/18 00:12:26;;;;;;;3.22;3.03;;;25.60;59.60;;;;;;5092319;28;20178;-59
2021/06/18 00:14:52;;;;;;;2.92;2.72;;;25.60;59.60;;;;;;5091390;28;20631;-59
2021/06/18 00:17:17;;;;;;;3.20;3.00;;;25.60;59.60;;;;;;5092216;28;20170;-60
2021/06/18 00:19:43;;;;;;;2.90;2.70;;;25.60;59.60;;;;;;5092075;28;20189;-61
2021/06/18 00:22:08;;;;;;;3.28;2.97;;;25.60;59.60;;;;;;5091621;28;20177;-60
2021/06/18 00:24:34;;;;;;;3.38;3.08;;;25.60;59.60;;;;;;5091721;28;20169;-59
2021/06/18 00:26:59;;;;;;;3.10;2.85;;;25.60;59.50;;;;;;5091897;28;20251;-60
2021/06/18 00:29:25;;;;;;;3.47;3.28;;;25.60;59.50;;;;;;5091542;28;20315;-60
2021/06/18 00:31:50;;;;;;;3.40;2.83;;;25.60;59.50;;;;;;5091383;28;20277;-59
2021/06/18 00:34:16;;;;;;;3.20;2.95;;;25.60;59.60;;;;;;5092090;28;20207;-60
2021/06/18 00:36:41;;;;;;;3.47;3.28;;;25.60;59.50;;;;;;5091306;28;20169;-60
2021/06/18 00:39:07;;;;;;;2.92;2.72;;;25.60;59.50;;;;;;5091699;28;20180;-60
2021/06/18 00:41:32;;;;;;;3.10;2.90;;;25.60;59.50;;;;;;5091131;28;20636;-60
2021/06/18 00:43:58;;;;;;;3.20;3.00;;;25.60;59.50;;;;;;5091936;28;20181;-60
2021/06/18 00:46:23;;;;;;;3.28;3.08;;;25.60;60.20;;;;;;5091715;28;20527;-60
2021/06/18 00:48:49;;;;;;;3.53;3.33;;;25.60;59.50;;;;;;5091209;28;20188;-60
2021/06/18 00:51:15;;;;;;;2.90;2.70;;;25.60;59.50;;;;;;5074078;28;20173;-60
2021/06/18 00:53:40;;;;;;;2.97;2.78;;;25.60;59.50;;;;;;5095626;28;20174;-60
2021/06/18 00:56:06;;;;;;;3.22;3.03;;;25.60;59.50;;;;;;5095478;28;20178;-60
2021/06/18 00:58:32;;;;;;;3.10;2.90;;;25.60;59.50;;;;;;5095441;28;20169;-60
2021/06/18 01:00:57;;;;;;;3.28;3.08;;;25.60;59.40;;;;;;5077250;28;20178;-60
2021/06/18 01:03:22;;;;;;;3.58;3.28;;;25.60;59.40;;;;;;5095109;28;20503;-60
2021/06/18 01:05:48;;;;;;;3.83;3.53;;;25.50;59.40;;;;;;5095114;28;20181;-60
2021/06/18 01:08:20;;;;;;;3.47;3.22;;;25.60;59.40;;;;;;5077372;28;20213;-60
2021/06/18 01:11:00;;;;;;;3.70;3.40;;;25.50;59.40;;;;;;5076423;28;20173;-60
2021/06/18 01:13:48;;;;;;;3.25;3.05;;;25.50;59.40;;;;;;5077122;28;20188;-60
2021/06/18 01:16:26;;;;;;;3.38;3.08;;;25.60;59.50;;;;;;5077259;28;20290;-59
2021/06/18 01:19:22;;;;;;;3.50;3.30;;;25.50;59.40;;;;;;5076902;28;20174;-59
2021/06/18 01:21:52;;;;;;;3.90;3.55;;;25.50;59.40;;;;;;5079550;28;20250;-59
2021/06/18 01:24:42;;;;;;;3.90;3.60;;;25.50;59.40;;;;;;5095031;28;20174;-59
2021/06/18 01:27:15;;;;;;;3.38;3.08;;;25.50;59.40;;;;;;5076966;28;20229;-59
2021/06/18 01:29:53;;;;;;;3.53;3.33;;;25.50;59.40;;;;;;5077601;28;20185;-59
2021/06/18 01:32:29;;;;;;;3.92;3.30;;;25.50;59.40;;;;;;5094756;28;20606;-60
2021/06/18 01:34:54;;;;;;;3.28;2.97;;;25.50;60.00;;;;;;5076888;28;20254;-60
2021/06/18 01:37:21;;;;;;;3.45;3.25;;;25.50;59.30;;;;;;5077140;28;20263;-60
2021/06/18 01:39:47;;;;;;;3.33;3.13;;;25.50;59.40;;;;;;5094080;28;20666;-60
2021/06/18 01:42:12;;;;;;;3.72;3.42;;;25.50;59.40;;;;;;5095174;28;20174;-59
2021/06/18 01:44:38;;;;;;;3.60;3.30;;;25.50;59.40;;;;;;5094713;28;20178;-60
2021/06/18 01:47:05;;;;;;;3.20;2.90;;;25.50;59.30;;;;;;5076132;28;20202;-59
2021/06/18 01:49:30;;;;;;;3.47;3.17;;;25.50;59.40;;;;;;5076484;28;20643;-59
2021/06/18 01:51:56;;;;;;;3.38;3.17;;;25.50;59.40;;;;;;5076210;28;20272;-60
2021/06/18 01:54:26;;;;;;;3.70;3.33;;;25.50;59.30;;;;;;5076636;28;20252;-59
2021/06/18 01:56:52;;;;;;;3.38;3.08;;;25.50;59.30;;;;;;5077412;28;20196;-60
2021/06/18 01:59:17;;;;;;;3.60;3.30;;;25.50;59.40;;;;;;5094419;28;20261;-59
2021/06/18 02:01:44;;;;;;;3.80;3.50;;;25.50;59.40;;;;;;5094337;28;20177;-60
2021/06/18 02:04:11;;;;;;;3.80;3.50;;;25.50;59.30;;;;;;5075695;28;20261;-60
2021/06/18 02:06:37;;;;;;;3.95;3.70;;;25.50;59.40;;;;;;5075817;28;20198;-59
2021/06/18 02:09:04;;;;;;;3.42;3.22;;;25.50;59.40;;;;;;5076358;28;20243;-60
2021/06/18 02:11:30;;;;;;;3.72;3.42;;;25.50;59.30;;;;;;5094763;28;20174;-59
2021/06/18 02:13:55;;;;;;;3.60;3.40;;;25.50;59.40;;;;;;5094097;28;20535;-60
2021/06/18 02:16:23;;;;;;;3.90;3.53;;;25.50;59.30;;;;;;5094342;28;20235;-59
2021/06/18 02:18:49;;;;;;;3.80;3.50;;;25.50;59.40;;;;;;5075796;28;20178;-59
2021/06/18 02:21:14;;;;;;;3.70;3.45;;;25.50;59.40;;;;;;5075731;28;20664;-60
2021/06/18 02:23:40;;;;;;;3.40;3.17;;;25.50;59.40;;;;;;5075501;28;20182;-60
2021/06/18 02:26:06;;;;;;;3.65;3.35;;;25.50;59.40;;;;;;5076321;28;20181;-60
2021/06/18 02:28:32;;;;;;;3.90;3.60;;;25.50;59.30;;;;;;5075410;28;20221;-60
2021/06/18 02:30:57;;;;;;;3.78;3.47;;;25.50;59.30;;;;;;5093712;28;20221;-60
2021/06/18 02:33:23;;;;;;;3.47;3.17;;;25.40;59.30;;;;;;5075925;28;20182;-60
2021/06/18 02:35:49;;;;;;;3.38;3.13;;;25.50;59.30;;;;;;5093193;28;20180;-61
2021/06/18 02:38:14;;;;;;;3.38;3.17;;;25.50;59.30;;;;;;5093536;28;20603;-60
2021/06/18 02:40:40;;;;;;;3.45;3.25;;;25.40;59.30;;;;;;5093862;28;20178;-60
2021/06/18 02:43:06;;;;;;;3.50;3.30;;;25.40;59.30;;;;;;5093238;28;20186;-60
2021/06/18 02:45:31;;;;;;;4.03;3.72;;;25.50;59.40;;;;;;5093579;28;20221;-60
2021/06/18 02:48:01;;;;;;;3.65;3.35;;;25.50;59.30;;;;;;5093854;28;20209;-60
2021/06/18 02:50:39;;;;;;;3.75;3.55;;;25.50;59.40;;;;;;5093061;28;20197;-60
2021/06/18 02:53:22;;;;;;;3.40;3.20;;;25.40;59.30;;;;;;5075604;28;20189;-59
2021/06/18 02:56:11;;;;;;;3.92;3.63;;;25.40;59.30;;;;;;5076001;28;20205;-59
2021/06/18 02:58:52;;;;;;;3.88;3.63;;;25.40;59.30;;;;;;5092960;28;20174;-59
2021/06/18 03:01:19;;;;;;;3.70;3.50;;;25.40;59.30;;;;;;5075340;28;20544;-60
2021/06/18 03:03:45;;;;;;;3.67;3.47;;;25.40;59.30;;;;;;5074889;28;20174;-60
2021/06/18 03:06:11;;;;;;;4.00;3.70;;;25.40;59.30;;;;;;5075176;28;20269;-60
2021/06/18 03:08:46;;;;;;;4.32;4.05;;;25.40;59.30;;;;;;5074856;28;20259;-59
2021/06/18 03:11:11;;;;;;;4.10;3.80;;;25.40;59.30;;;;;;5074367;28;20238;-59
2021/06/18 03:13:43;;;;;;;3.95;3.65;;;25.40;59.30;;;;;;5092689;28;20170;-59
2021/06/18 03:16:10;;;;;;;3.85;3.55;;;25.40;59.30;;;;;;5074814;28;20515;-60
2021/06/18 03:18:36;;;;;;;4.20;3.80;;;25.40;59.20;;;;;;5092128;28;20182;-59
2021/06/18 03:21:01;;;;;;;4.00;3.70;;;25.40;59.30;;;;;;5093054;28;20588;-59
2021/06/18 03:23:27;;;;;;;3.60;3.40;;;25.40;59.30;;;;;;5092450;28;20628;-59
2021/06/18 03:25:52;;;;;;;3.80;3.50;;;25.40;59.30;;;;;;5074125;28;20206;-59
2021/06/18 03:28:18;;;;;;;3.55;3.35;;;25.40;59.30;;;;;;5074534;28;20216;-59
2021/06/18 03:30:47;;;;;;;4.25;3.92;;;25.40;59.20;;;;;;5073615;28;20222;-59
2021/06/18 03:33:13;;;;;;;3.75;3.50;;;25.40;59.30;;;;;;5092188;28;20574;-59
2021/06/18 03:35:38;;;;;;;4.40;4.10;;;25.40;59.20;;;;;;5092285;28;20256;-60
2021/06/18 03:38:04;;;;;;;4.10;3.80;;;25.40;59.20;;;;;;5074116;28;20517;-60
2021/06/18 03:40:30;;;;;;;4.30;3.95;;;25.40;59.80;;;;;;5073994;28;20644;-60
2021/06/18 03:42:55;;;;;;;4.47;4.13;;;25.40;59.20;;;;;;5074563;28;20178;-59
2021/06/18 03:45:21;;;;;;;3.78;3.50;;;25.40;59.20;;;;;;5073711;28;20509;-60
2021/06/18 03:47:47;;;;;;;4.00;3.67;;;25.40;59.20;;;;;;5073680;28;20214;-60
2021/06/18 03:50:14;;;;;;;4.20;3.85;;;25.40;59.20;;;;;;5074554;28;20274;-60
2021/06/18 03:52:40;;;;;;;4.30;3.90;;;25.40;59.20;;;;;;5073543;28;20229;-59
2021/06/18 03:55:07;;;;;;;4.40;4.10;;;25.40;59.20;;;;;;5074055;28;20252;-59
2021/06/18 03:57:33;;;;;;;4.25;3.95;;;25.40;59.20;;;;;;5073717;28;20282;-60
2021/06/18 03:59:58;;;;;;;4.32;3.92;;;25.40;59.10;;;;;;5091814;28;20182;-60
2021/06/18 04:02:24;;;;;;;3.90;3.70;;;25.40;59.10;;;;;;5074065;28;20261;-60
2021/06/18 04:04:50;;;;;;;4.57;4.28;;;25.40;59.10;;;;;;5074025;28;20223;-60
2021/06/18 04:07:16;;;;;;;3.63;3.42;;;25.50;59.10;;;;;;5073875;28;20202;-60
2021/06/18 04:09:41;;;;;;;4.10;3.88;;;25.50;59.10;;;;;;5073665;28;20166;-60
2021/06/18 04:12:07;;;;;;;4.03;3.72;;;25.50;59.00;;;;;;5074265;28;20569;-60
2021/06/18 04:14:33;;;;;;;4.43;4.13;;;25.50;59.00;;;;;;5073439;28;20692;-60
2021/06/18 04:16:58;;;;;;;3.83;3.63;;;25.50;59.00;;;;;;5074588;28;20178;-59
2021/06/18 04:19:24;;;;;;;4.07;3.78;;;25.40;59.00;;;;;;5074222;28;20616;-60
2021/06/18 04:21:50;;;;;;;4.22;3.92;;;25.50;59.00;;;;;;5073312;28;20198;-59
2021/06/18 04:24:15;;;;;;;3.88;3.60;;;25.50;59.10;;;;;;5074174;28;20174;-59
2021/06/18 04:26:41;;;;;;;4.43;4.13;;;25.50;59.00;;;;;;5090843;28;20251;-59
2021/06/18 04:29:07;;;;;;;4.10;3.80;;;25.50;59.00;;;;;;5092289;28;20600;-59
2021/06/18 04:31:32;;;;;;;3.90;3.63;;;25.40;59.10;;;;;;5091749;28;20632;-60
2021/06/18 04:33:58;;;;;;;4.72;4.32;;;25.40;59.10;;;;;;5091707;28;20197;-60
2021/06/18 04:36:23;;;;;;;5.03;4.63;;;25.40;58.90;;;;;;5092071;28;20315;-60
2021/06/18 04:38:49;;;;;;;4.47;4.07;;;25.40;59.60;;;;;;5073726;28;20236;-60
2021/06/18 04:41:14;;;;;;;4.38;3.97;;;25.40;59.10;;;;;;5091705;28;20647;-61
2021/06/18 04:43:40;;;;;;;4.22;3.92;;;25.40;59.20;;;;;;5091833;28;20189;-61
2021/06/18 04:46:05;;;;;;;4.85;4.45;;;25.40;59.20;;;;;;5092496;28;20169;-61
2021/06/18 04:48:31;;;;;;;3.97;3.78;;;25.40;59.20;;;;;;5091663;28;20640;-60
2021/06/18 04:50:57;;;;;;;4.22;3.92;;;25.40;59.20;;;;;;5092009;28;20691;-60
2021/06/18 04:53:22;;;;;;;3.80;3.60;;;25.40;59.20;;;;;;5092083;28;20208;-60
2021/06/18 04:55:48;;;;;;;4.68;4.38;;;25.40;59.20;;;;;;5091278;28;20268;-60
2021/06/18 04:58:14;;;;;;;4.57;4.22;;;25.40;59.30;;;;;;5092088;28;20169;-60
2021/06/18 05:00:39;;;;;;;4.45;4.10;;;25.40;59.30;;;;;;5073896;28;20640;-60
2021/06/18 05:03:05;;;;;;;4.20;3.90;;;25.40;59.30;;;;;;5091656;28;20173;-60
2021/06/18 05:05:30;;;;;;;4.40;4.10;;;25.40;59.30;;;;;;5091539;28;20194;-60
2021/06/18 05:07:56;;;;;;;4.53;4.22;;;25.30;59.20;;;;;;5091938;28;20201;-60
2021/06/18 05:10:22;;;;;;;4.78;4.38;;;25.30;59.10;;;;;;5091245;28;20182;-60
2021/06/18 05:12:48;;;;;;;5.00;4.60;;;25.30;59.20;;;;;;5091275;28;20170;-59
2021/06/18 05:15:14;;;;;;;4.30;4.00;;;25.40;59.20;;;;;;5092137;28;20176;-60
2021/06/18 05:17:39;;;;;;;4.22;3.90;;;25.40;59.20;;;;;;5090754;28;20204;-60
2021/06/18 05:20:05;;;;;;;4.22;3.92;;;25.40;59.20;;;;;;5091976;28;20679;-59
2021/06/18 05:22:31;;;;;;;4.53;4.22;;;25.40;59.10;;;;;;5091579;28;20189;-60
2021/06/18 05:24:57;;;;;;;4.75;4.35;;;25.40;59.10;;;;;;5091077;28;20651;-59
2021/06/18 05:27:22;;;;;;;4.65;4.25;;;25.30;59.10;;;;;;5091896;28;20241;-60
2021/06/18 05:29:48;;;;;;;4.25;3.95;;;25.40;59.20;;;;;;5091287;28;20628;-60
2021/06/18 05:32:14;;;;;;;4.35;4.05;;;25.40;59.20;;;;;;5091262;28;20198;-60
2021/06/18 05:34:39;;;;;;;4.32;4.03;;;25.40;59.20;;;;;;5091430;28;20580;-61
2021/06/18 05:37:05;;;;;;;4.30;4.00;;;25.40;59.10;;;;;;5091197;28;20197;-61
2021/06/18 05:39:30;;;;;;;4.35;4.05;;;25.40;59.10;;;;;;5093495;28;20644;-61
2021/06/18 05:41:56;;;;;;;4.40;4.10;;;25.40;59.00;;;;;;5095592;28;20172;-61
2021/06/18 05:44:21;;;;;;;4.43;4.13;;;25.40;59.00;;;;;;5094720;28;20178;-60
2021/06/18 05:46:47;;;;;;;5.20;4.80;;;25.50;59.00;;;;;;5094922;28;20197;-61
2021/06/18 05:49:12;;;;;;;4.05;3.72;;;25.50;58.90;;;;;;5095182;28;20253;-60
2021/06/18 05:51:38;;;;;;;4.95;4.43;;;25.50;58.80;;;;;;5094379;28;20170;-60
2021/06/18 05:54:03;;;;;;;4.57;4.18;;;25.60;58.80;;;;;;5094826;28;20527;-60
2021/06/18 05:56:29;;;;;;;4.65;4.25;;;25.60;58.80;;;;;;5094992;28;20178;-60
2021/06/18 05:58:54;;;;;;;5.13;4.72;;;25.60;58.80;;;;;;5094809;28;20284;-60
2021/06/18 06:01:20;;;;;;;4.70;4.30;;;25.60;58.80;;;;;;5094902;28;20173;-60
2021/06/18 06:03:46;;;;;;;4.47;4.18;;;25.50;58.90;;;;;;5094818;28;20197;-61
2021/06/18 06:06:11;;;;;;;5.00;4.70;;;25.50;58.90;;;;;;5094634;28;20200;-60
2021/06/18 06:08:37;;;;;;;4.38;4.07;;;25.50;58.90;;;;;;5094295;28;20213;-60
2021/06/18 06:11:03;;;;;;;4.47;4.15;;;25.50;58.90;;;;;;5095095;28;20257;-60
2021/06/18 06:13:28;;;;;;;4.72;4.35;;;25.50;58.90;;;;;;5094295;28;20229;-60
2021/06/18 06:15:54;;;;;;;4.82;4.43;;;25.50;59.00;;;;;;5094125;28;20205;-60
2021/06/18 06:18:20;;;;;;;4.80;4.40;;;25.50;58.90;;;;;;5094501;28;20536;-60
2021/06/18 06:20:46;;;;;;;4.47;4.07;;;25.50;58.90;;;;;;5093187;28;20212;-60
2021/06/18 06:23:11;;;;;;;4.45;4.15;;;25.50;58.80;;;;;;5094017;28;20185;-59
2021/06/18 06:25:37;;;;;;;4.53;4.22;;;25.50;58.80;;;;;;5094228;28;20177;-59
2021/06/18 06:28:03;;;;;;;5.00;4.60;;;25.50;58.90;;;;;;5093441;28;20213;-59
2021/06/18 06:30:29;;;;;;;4.65;4.32;;;25.50;58.90;;;;;;5093991;28;20221;-60
2021/06/18 06:32:54;;;;;;;5.03;4.72;;;25.60;59.00;;;;;;5094234;28;20181;-60
2021/06/18 06:35:21;;;;;;;4.38;4.10;;;25.60;59.10;;;;;;5093325;28;20265;-60
2021/06/18 06:37:47;;;;;;;4.53;4.22;;;25.50;59.00;;;;;;5093608;28;20189;-60
2021/06/18 06:40:13;;;;;;;5.10;4.70;;;25.60;59.00;;;;;;5093676;28;20538;-61
2021/06/18 06:42:38;;;;;;;5.10;4.70;;;25.60;59.10;;;;;;5093438;28;20182;-60
2021/06/18 06:45:05;;;;;;;4.57;4.28;;;25.60;59.10;;;;;;5093970;28;20170;-60
2021/06/18 06:47:31;;;;;;;4.72;4.43;;;25.50;59.10;;;;;;5092914;28;20997;-61
2021/06/18 06:49:56;;;;;;;4.53;4.22;;;25.60;59.10;;;;;;5093275;28;20691;-60
2021/06/18 06:52:22;;;;;;;4.88;4.57;;;25.60;59.10;;;;;;5093815;28;20178;-59
2021/06/18 06:54:47;;;;;;;4.75;4.35;;;25.60;59.00;;;;;;5093313;28;20967;-60
2021/06/18 06:57:16;;;;;;;4.68;4.38;;;25.60;59.00;;;;;;5093599;28;20535;-60
2021/06/18 06:59:41;;;;;;;5.07;4.68;;;25.70;59.00;;;;;;5093446;28;20281;-60
2021/06/18 07:02:07;;;;;;;4.90;4.57;;;25.70;59.00;;;;;;5093359;28;20263;-60
2021/06/18 07:04:32;;;;;;;4.63;4.35;;;25.70;59.00;;;;;;5093123;28;20307;-60
2021/06/18 07:06:58;;;;;;;5.00;4.70;;;25.70;59.00;;;;;;5093317;28;20216;-60
2021/06/18 07:09:24;;;;;;;4.68;4.38;;;25.70;59.00;;;;;;5092973;28;20512;-60
2021/06/18 07:11:49;;;;;;;4.70;4.40;;;25.70;59.00;;;;;;5093045;28;20178;-60
2021/06/18 07:14:15;;;;;;;4.97;4.68;;;25.80;58.90;;;;;;5093465;28;20201;-60
2021/06/18 07:16:40;;;;;;;4.80;4.38;;;25.80;58.80;;;;;;5092683;28;20169;-60
2021/06/18 07:19:06;;;;;;;5.05;4.68;;;25.90;58.80;;;;;;5093016;28;20177;-60
2021/06/18 07:21:31;;;;;;;5.07;4.68;;;25.90;58.80;;;;;;5074638;28;20257;-60
2021/06/18 07:23:57;;;;;;;4.97;4.57;;;25.90;58.90;;;;;;5092524;28;20181;-60
2021/06/18 07:26:22;;;;;;;4.75;4.45;;;25.90;58.90;;;;;;5093419;28;20508;-60
2021/06/18 07:28:48;;;;;;;4.95;4.55;;;25.80;58.90;;;;;;5092784;28;20205;-60
2021/06/18 07:31:13;;;;;;;4.90;4.60;;;25.80;58.90;;;;;;5092198;28;20225;-61
2021/06/18 07:33:39;;;;;;;4.93;4.63;;;25.80;58.90;;;;;;5092695;28;20173;-61
2021/06/18 07:36:05;;;;;;;4.85;4.55;;;25.80;58.90;;;;;;5092911;28;20166;-61
2021/06/18 07:38:30;;;;;;;4.82;4.45;;;25.80;58.90;;;;;;5092056;28;20266;-61
2021/06/18 07:40:56;;;;;;;4.88;4.57;;;25.80;58.90;;;;;;5092908;28;20204;-63
2021/06/18 07:43:21;;;;;;;5.10;4.80;;;25.90;59.10;;;;;;5092538;28;20209;-63
2021/06/18 07:45:47;;;;;;;6.85;6.35;;;25.80;59.10;;;;;;5091441;28;20263;-66
2021/06/18 07:48:12;;;;;;;8.63;7.82;;;25.80;60.20;;;;;;5092147;28;20659;-66
2021/06/18 07:50:38;;;;;;;10.48;9.57;;;25.80;59.90;;;;;;5091483;28;20219;-63
2021/06/18 07:53:04;;;;;;;14.45;12.95;;;25.80;60.10;;;;;;5092194;28;20224;-62
2021/06/18 07:55:30;;;;;;;14.82;13.52;;;25.80;61.30;;;;;;5091836;28;20509;-63
2021/06/18 07:57:55;;;;;;;15.35;13.90;;;25.70;62.00;;;;;;5091602;28;20185;-62
2021/06/18 08:00:21;;;;;;;15.30;13.85;;;25.70;62.30;;;;;;5091757;28;20253;-63
2021/06/18 08:02:47;;;;;;;15.10;13.63;;;25.70;62.40;;;;;;5091088;28;20632;-62
2021/06/18 08:05:12;;;;;;;17.38;15.98;;;25.70;62.50;;;;;;5091228;28;20170;-62
2021/06/18 08:07:39;;;;;;;17.00;15.43;;;25.70;62.90;;;;;;5091501;28;20232;-61
2021/06/18 08:10:05;;;;;;;17.10;15.70;;;25.70;62.80;;;;;;5092023;28;20176;-62
2021/06/18 08:12:31;;;;;;;18.42;16.67;;;25.70;63.10;;;;;;5091193;28;20178;-62
2021/06/18 08:14:56;;;;;;;16.30;14.85;;;25.70;63.20;;;;;;5091465;28;20177;-62
2021/06/18 08:17:22;;;;;;;16.27;14.95;;;25.70;63.10;;;;;;5091927;28;20180;-62
2021/06/18 08:19:47;;;;;;;17.83;16.15;;;25.70;63.30;;;;;;5090342;28;20178;-62
2021/06/18 08:22:13;;;;;;;18.27;16.67;;;25.60;63.40;;;;;;5091356;28;20173;-62
2021/06/18 08:24:39;;;;;;;17.08;15.57;;;25.60;63.30;;;;;;5090876;28;20174;-62
2021/06/18 08:27:05;;;;;;;16.40;15.00;;;25.60;63.10;;;;;;5090456;28;20209;-62
2021/06/18 08:29:31;;;;;;;14.68;13.40;;;25.50;63.20;;;;;;5090950;28;20900;-62
2021/06/18 08:31:56;;;;;;;15.80;14.40;;;25.50;62.50;;;;;;5091127;28;20213;-63
2021/06/18 08:34:22;;;;;;;16.10;14.63;;;25.50;62.70;;;;;;5090423;28;20280;-62
2021/06/18 08:36:47;;;;;;;15.80;14.40;;;25.50;62.70;;;;;;5090740;28;20284;-62
2021/06/18 08:39:13;;;;;;;14.98;13.68;;;25.50;62.60;;;;;;5091152;28;20238;-63
2021/06/18 08:41:39;;;;;;;15.52;14.23;;;25.50;62.50;;;;;;5090159;28;20173;-62
2021/06/18 08:44:05;;;;;;;17.15;15.57;;;25.50;62.30;;;;;;5090876;28;20162;-62
2021/06/18 08:46:30;;;;;;;16.38;14.93;;;25.50;63.00;;;;;;5090313;28;20185;-63
2021/06/18 08:48:56;;;;;;;16.58;15.10;;;25.50;62.10;;;;;;5090370;28;20220;-63
2021/06/18 08:51:21;;;;;;;17.48;15.90;;;25.50;62.00;;;;;;5090640;28;20166;-63
2021/06/18 08:53:47;;;;;;;17.65;16.05;;;25.50;62.10;;;;;;5090776;28;20170;-62
2021/06/18 08:56:12;;;;;;;17.15;15.65;;;25.50;62.00;;;;;;5091076;28;20176;-62
2021/06/18 08:58:38;;;;;;;18.55;16.95;;;25.50;62.20;;;;;;5091808;28;20212;-62
2021/06/18 09:01:04;;;;;;;18.45;16.85;;;25.50;62.30;;;;;;5091568;28;20202;-63
2021/06/18 09:03:44;;;;;;;16.65;15.23;;;25.50;62.20;;;;;;5091609;28;20178;-63
2021/06/18 09:06:30;;;;;;;16.58;15.18;;;25.50;62.00;;;;;;5092262;28;20194;-62
2021/06/18 09:09:20;;;;;;;16.73;15.18;;;25.60;61.90;;;;;;5091515;28;20216;-62
2021/06/18 09:11:49;;;;;;;16.35;15.05;;;25.60;62.10;;;;;;5081725;28;20235;-63
2021/06/18 09:14:19;;;;;;;15.77;14.20;;;25.70;62.50;;;;;;5095974;28;20174;-62
2021/06/18 09:17:04;;;;;;;15.80;14.30;;;25.70;62.30;;;;;;5095204;28;20280;-67
2021/06/18 09:19:29;;;;;;;14.90;13.60;;;25.70;62.30;;;;;;5096114;28;20214;-66
2021/06/18 09:22:03;;;;;;;15.85;14.30;;;25.70;62.40;;;;;;5096066;28;20177;-66
2021/06/18 09:24:33;;;;;;;14.95;13.70;;;25.70;62.30;;;;;;5095716;28;20185;-67
2021/06/18 09:26:59;;;;;;;15.38;13.98;;;25.70;62.20;;;;;;5095600;28;20556;-66
2021/06/18 09:29:25;;;;;;;15.65;13.93;;;25.80;62.30;;;;;;5095455;28;20173;-62
2021/06/18 09:32:01;;;;;;;14.68;13.07;;;25.90;62.40;;;;;;5095166;28;20226;-63
2021/06/18 09:34:30;;;;;;;19.42;12.32;;;25.80;62.80;;;;;;5095610;28;20173;-62
2021/06/18 09:37:19;;;;;;;15.88;12.35;;;25.80;62.70;;;;;;5095025;28;20306;-61
2021/06/18 09:40:09;;;;;;;13.38;11.77;;;25.80;62.80;;;;;;5095287;28;20170;-60
2021/06/18 09:42:58;;;;;;;12.57;11.25;;;25.90;62.90;;;;;;5094907;28;20238;-60
2021/06/18 09:45:25;;;;;;;12.20;10.90;;;26.00;62.70;;;;;;5083302;28;20264;-61
2021/06/18 09:47:51;;;;;;;12.45;11.15;;;26.00;62.50;;;;;;5095038;28;20217;-60
2021/06/18 09:50:29;;;;;;;11.40;10.30;;;26.10;63.50;;;;;;5094610;28;20640;-59
2021/06/18 09:53:09;;;;;;;11.45;10.38;;;26.10;62.60;;;;;;5094898;28;20651;-60
2021/06/18 09:55:34;;;;;;;11.15;10.07;;;26.10;62.50;;;;;;5094787;28;20173;-60
2021/06/18 09:58:00;;;;;;;10.85;9.95;;;26.10;62.40;;;;;;5094503;28;20520;-59
2021/06/18 10:00:26;;;;;;;14.43;9.65;;;26.20;62.40;;;;;;5075803;28;20598;-60
2021/06/18 10:02:54;;;;;;;10.27;9.23;;;26.20;62.30;;;;;;5094212;28;20185;-59
2021/06/18 10:05:24;;;;;;;10.43;9.63;;;26.20;62.50;;;;;;5093613;28;20170;-59
2021/06/18 10:07:51;;;;;;;10.10;9.15;;;26.30;62.50;;;;;;5093885;28;20205;-60
2021/06/18 10:10:18;;;;;;;10.02;9.00;;;26.30;62.30;;;;;;5093801;28;20391;-59
2021/06/18 10:12:43;;;;;;;11.68;9.13;;;26.40;62.20;;;;;;5093137;28;20230;-59
2021/06/18 10:15:10;;;;;;;9.20;8.40;;;26.40;62.10;;;;;;5094001;28;20261;-59
2021/06/18 10:17:37;;;;;;;9.48;8.65;;;26.40;62.10;;;;;;5093889;28;20390;-59
2021/06/18 10:20:06;;;;;;;9.90;8.57;;;26.40;62.00;;;;;;5093013;28;20255;-59
2021/06/18 10:22:31;;;;;;;9.45;8.50;;;26.50;62.10;;;;;;5093758;28;20181;-60
2021/06/18 10:25:04;;;;;;;10.07;9.25;;;26.50;62.00;;;;;;5074906;28;20578;-59
2021/06/18 10:27:41;;;;;;;9.05;8.15;;;26.50;62.00;;;;;;5091142;28;20209;-59
2021/06/18 10:30:29;;;;;;;9.13;8.38;;;26.60;62.00;;;;;;5091549;28;20241;-60
2021/06/18 10:32:56;;;;;;;8.48;7.72;;;26.60;61.90;;;;;;5093787;28;20192;-65
2021/06/18 10:35:43;;;;;;;9.23;8.32;;;26.60;61.90;;;;;;5094107;28;20173;-65
2021/06/18 10:38:13;;;;;;;9.00;8.00;;;26.50;61.80;;;;;;5094412;28;20170;-65
2021/06/18 10:40:43;;;;;;;8.55;7.93;;;26.50;61.80;;;;;;5092995;28;20178;-65
2021/06/18 10:43:13;;;;;;;9.63;7.97;;;26.50;61.80;;;;;;5094129;28;20257;-65
2021/06/18 10:45:58;;;;;;;8.55;7.80;;;26.50;61.60;;;;;;5093587;28;20178;-65
2021/06/18 10:48:54;;;;;;;8.40;7.65;;;26.50;61.30;;;;;;5093188;28;20205;-65
2021/06/18 10:51:28;;;;;;;7.88;7.28;;;26.50;61.20;;;;;;5092950;28;20593;-64
2021/06/18 10:54:03;;;;;;;9.00;8.07;;;26.50;61.10;;;;;;5093121;28;20169;-65
2021/06/18 10:56:44;;;;;;;8.20;7.60;;;26.50;60.90;;;;;;5093595;28;20580;-66
2021/06/18 10:59:09;;;;;;;9.02;8.13;;;26.60;61.10;;;;;;5094050;28;20264;-65
2021/06/18 11:01:35;;;;;;;8.68;7.97;;;26.60;61.00;;;;;;5092943;28;20280;-65
2021/06/18 11:04:01;;;;;;;10.70;9.70;;;26.60;61.00;;;;;;5093932;28;20244;-65
2021/06/18 11:06:42;;;;;;;11.93;10.25;;;26.70;61.10;;;;;;5093676;28;20222;-66
2021/06/18 11:09:08;;;;;;;16.40;11.43;;;26.70;61.20;;;;;;5092942;28;20181;-65
2021/06/18 11:11:35;;;;;;;17.60;11.63;;;26.70;61.20;;;;;;5093543;28;20173;-65
2021/06/18 11:14:10;;;;;;;13.20;11.90;;;26.70;61.40;;;;;;5093537;28;20658;-65
2021/06/18 11:16:39;;;;;;;20.38;12.95;;;26.70;61.40;;;;;;5092622;28;20216;-61
2021/06/18 11:19:25;;;;;;;14.35;12.73;;;26.70;61.20;;;;;;5093494;28;20230;-61
2021/06/18 11:21:51;;;;;;;15.48;12.23;;;26.70;61.60;;;;;;5092807;28;20173;-61
2021/06/18 11:24:34;;;;;;;17.42;12.82;;;26.60;61.60;;;;;;5093326;28;20244;-61
2021/06/18 11:27:19;;;;;;;17.48;12.70;;;26.70;61.80;;;;;;5093271;28;20209;-65
2021/06/18 11:29:45;;;;;;;18.13;12.15;;;26.80;61.70;;;;;;5092185;28;20639;-64
2021/06/18 11:32:44;;;;;;;15.63;13.00;;;26.80;61.70;;;;;;5075063;28;20232;-64
2021/06/18 11:35:32;;;;;;;16.25;12.90;;;26.80;61.90;;;;;;5093157;28;20170;-64
2021/06/18 11:38:17;;;;;;;13.80;11.75;;;26.90;62.00;;;;;;5091832;28;20169;-65
2021/06/18 11:40:43;;;;;;;18.75;12.48;;;26.90;61.70;;;;;;5092847;28;20181;-62
2021/06/18 11:43:09;;;;;;;16.27;12.32;;;26.80;61.70;;;;;;5091391;28;20169;-61
2021/06/18 11:45:43;;;;;;;15.70;11.80;;;26.70;61.80;;;;;;5090574;28;20656;-62
2021/06/18 11:48:15;;;;;;;16.23;12.02;;;26.70;61.90;;;;;;5092380;28;20280;-61
2021/06/18 11:50:42;;;;;;;14.35;11.75;;;26.70;61.80;;;;;;5091443;28;20616;-62
2021/06/18 11:53:08;;;;;;;14.48;11.48;;;26.70;61.80;;;;;;5092665;28;20177;-62
2021/06/18 11:55:34;;;;;;;13.75;12.32;;;26.60;61.80;;;;;;5092270;28;20170;-61
2021/06/18 11:57:59;;;;;;;16.38;10.82;;;26.60;61.70;;;;;;5091783;28;20177;-61
2021/06/18 12:00:35;;;;;;;16.08;11.27;;;26.60;61.70;;;;;;5092208;28;20174;-61
2021/06/18 12:03:01;;;;;;;11.65;10.48;;;26.60;61.80;;;;;;5092333;28;20615;-61
2021/06/18 12:05:30;;;;;;;12.27;11.20;;;26.60;61.70;;;;;;5091648;28;20181;-62
2021/06/18 12:07:56;;;;;;;13.65;11.15;;;26.60;61.60;;;;;;5092237;28;20209;-62
2021/06/18 12:10:33;;;;;;;13.88;11.50;;;26.60;61.60;;;;;;5092717;28;20238;-63
2021/06/18 12:13:00;;;;;;;12.27;11.00;;;26.60;61.60;;;;;;5091216;28;20179;-64
2021/06/18 12:15:30;;;;;;;12.10;10.77;;;26.60;61.50;;;;;;5092071;28;20538;-63
2021/06/18 12:18:01;;;;;;;15.02;10.48;;;26.60;61.50;;;;;;5091578;28;20237;-62
2021/06/18 12:20:27;;;;;;;13.57;10.65;;;26.60;61.50;;;;;;5092078;28;20530;-62
2021/06/18 12:22:53;;;;;;;12.13;10.93;;;26.60;61.50;;;;;;5091595;28;20177;-62
2021/06/18 12:25:19;;;;;;;12.65;10.90;;;26.60;61.40;;;;;;5091515;28;20742;-62
2021/06/18 12:27:44;;;;;;;12.75;10.48;;;26.70;61.40;;;;;;5091397;28;20602;-61
2021/06/18 12:30:15;;;;;;;12.50;11.30;;;26.60;61.40;;;;;;5073873;28;20735;-62
2021/06/18 12:32:41;;;;;;;13.75;10.40;;;26.60;61.40;;;;;;5091041;28;20223;-62
2021/06/18 12:35:08;;;;;;;11.70;10.48;;;26.60;61.40;;;;;;5073973;28;20246;-62
2021/06/18 12:37:39;;;;;;;11.98;10.88;;;26.60;61.30;;;;;;5091645;28;20184;-63
2021/06/18 12:40:12;;;;;;;12.35;10.68;;;26.60;61.30;;;;;;5091093;28;20201;-63
2021/06/18 12:42:48;;;;;;;11.10;10.00;;;26.70;61.30;;;;;;5091321;28;20624;-62
2021/06/18 12:45:16;;;;;;;11.43;10.25;;;26.70;61.40;;;;;;5091973;28;20172;-62